createdAt,value
2023-03-03T00:00:54.855Z,11.27
2023-03-03T00:03:03.353Z,11.63
2023-03-03T00:05:07.989Z,10.93
2023-03-03T00:07:11.507Z,11.83
2023-03-03T00:09:12.979Z,11.25
2023-03-03T00:11:14.627Z,12.15
2023-03-03T00:13:18.608Z,12.20
2023-03-03T00:15:23.192Z,11.17
2023-03-03T00:17:29.948Z,12.02
2023-03-03T00:19:39.918Z,12.10
2023-03-03T00:21:45.065Z,11.45
2023-03-03T00:23:47.261Z,11.20
2023-03-03T00:25:53.709Z,11.32
2023-03-03T00:27:55.465Z,10.90
2023-03-03T00:29:59.578Z,11.03
2023-03-03T00:32:10.749Z,11.43
2023-03-03T00:34:18.496Z,11.17
2023-03-03T00:36:39.045Z,11.43
2023-03-03T00:38:40.942Z,12.43
2023-03-03T00:40:42.671Z,11.63
2023-03-03T00:42:51.740Z,12.00
2023-03-03T00:45:00.308Z,12.03
2023-03-03T00:47:19.014Z,12.03
2023-03-03T00:49:27.224Z,12.00
2023-03-03T00:51:34.411Z,11.73
2023-03-03T00:53:36.290Z,12.20
2023-03-03T00:55:38.188Z,11.00
2023-03-03T00:57:39.967Z,11.70
2023-03-03T00:59:44.458Z,12.33
2023-03-03T01:01:46.126Z,11.20
2023-03-03T01:03:48.107Z,10.77
2023-03-03T01:05:50.874Z,12.03
2023-03-03T01:07:52.493Z,11.67
2023-03-03T01:09:53.986Z,12.07
2023-03-03T01:11:56.218Z,11.43
2023-03-03T01:13:58.037Z,12.30
2023-03-03T01:16:03.248Z,10.90
2023-03-03T01:18:04.907Z,12.23
2023-03-03T01:20:13.923Z,10.17
2023-03-03T01:22:16.038Z,11.17
2023-03-03T01:24:17.640Z,12.00
2023-03-03T01:26:19.207Z,11.50
2023-03-03T01:28:20.947Z,12.90
2023-03-03T01:30:23.402Z,11.33
2023-03-03T01:32:25.952Z,12.47
2023-03-03T01:34:27.497Z,11.97
2023-03-03T01:36:29.574Z,12.60
2023-03-03T01:38:31.859Z,11.93
2023-03-03T01:40:33.516Z,11.37
2023-03-03T01:42:37.000Z,12.27
2023-03-03T01:44:38.574Z,12.23
2023-03-03T01:46:46.699Z,11.83
2023-03-03T01:48:48.523Z,11.97
2023-03-03T01:51:19.014Z,10.60
2023-03-03T01:53:41.734Z,13.10
2023-03-03T01:55:45.185Z,11.90
2023-03-03T01:57:53.052Z,12.83
2023-03-03T01:59:56.934Z,11.97
2023-03-03T02:01:58.872Z,12.17
2023-03-03T02:04:02.700Z,11.73
2023-03-03T02:06:08.192Z,12.20
2023-03-03T02:08:12.828Z,12.27
2023-03-03T02:10:17.475Z,11.50
2023-03-03T02:12:22.548Z,11.70
2023-03-03T02:14:25.139Z,11.87
2023-03-03T02:16:27.036Z,11.23
2023-03-03T02:18:28.928Z,11.70
2023-03-03T02:20:33.317Z,12.43
2023-03-03T02:22:44.491Z,11.80
2023-03-03T02:24:57.459Z,11.70
2023-03-03T02:26:59.146Z,12.23
2023-03-03T02:29:04.074Z,12.67
2023-03-03T02:31:13.046Z,11.83
2023-03-03T02:33:15.727Z,11.93
2023-03-03T02:35:29.705Z,12.37
2023-03-03T02:37:31.612Z,11.80
2023-03-03T02:39:33.288Z,11.47
2023-03-03T02:41:46.814Z,12.30
2023-03-03T02:43:59.033Z,12.57
2023-03-03T02:46:01.273Z,11.30
2023-03-03T02:48:02.788Z,12.37
2023-03-03T02:50:04.878Z,12.30
2023-03-03T02:52:09.895Z,12.80
2023-03-03T02:54:15.367Z,12.30
2023-03-03T02:56:16.892Z,12.43
2023-03-03T02:58:18.949Z,12.30
2023-03-03T03:00:22.350Z,12.10
2023-03-03T03:02:24.485Z,10.90
2023-03-03T03:04:27.962Z,11.80
2023-03-03T03:06:30.194Z,11.83
2023-03-03T03:08:31.835Z,11.23
2023-03-03T03:10:33.790Z,11.07
2023-03-03T03:12:35.614Z,11.03
2023-03-03T03:14:37.261Z,10.87
2023-03-03T03:16:41.041Z,12.13
2023-03-03T03:18:42.640Z,11.43
2023-03-03T03:20:46.136Z,10.77
2023-03-03T03:22:48.586Z,10.80
2023-03-03T03:24:50.185Z,12.30
2023-03-03T03:26:51.817Z,11.57
2023-03-03T03:28:54.919Z,12.50
2023-03-03T03:30:56.824Z,12.30
2023-03-03T03:32:58.403Z,11.83
2023-03-03T03:35:00.139Z,11.63
2023-03-03T03:37:02.045Z,11.73
2023-03-03T03:39:06.320Z,10.07
2023-03-03T03:41:13.042Z,11.43
2023-03-03T03:43:14.928Z,11.57
2023-03-03T03:45:16.726Z,12.17
2023-03-03T03:47:21.128Z,11.17
2023-03-03T03:49:22.876Z,12.47
2023-03-03T03:51:27.510Z,12.40
2023-03-03T03:53:29.150Z,11.40
2023-03-03T03:55:30.998Z,11.83
2023-03-03T03:57:33.127Z,12.00
2023-03-03T03:59:34.836Z,14.17
2023-03-03T04:01:36.473Z,12.10
2023-03-03T04:03:38.359Z,13.03
2023-03-03T04:05:44.555Z,12.57
2023-03-03T04:07:46.743Z,12.37
2023-03-03T04:09:50.163Z,11.53
2023-03-03T04:11:52.052Z,11.27
2023-03-03T04:13:53.848Z,11.73
2023-03-03T04:15:56.356Z,12.07
2023-03-03T04:17:58.100Z,12.77
2023-03-03T04:20:00.858Z,11.50
2023-03-03T04:22:02.792Z,11.77
2023-03-03T04:24:05.772Z,12.93
2023-03-03T04:26:09.124Z,12.00
2023-03-03T04:28:11.257Z,12.63
2023-03-03T04:30:15.239Z,12.63
2023-03-03T04:32:19.296Z,12.30
2023-03-03T04:34:22.296Z,12.93
2023-03-03T04:36:23.928Z,12.83
2023-03-03T04:38:26.203Z,13.10
2023-03-03T04:40:29.542Z,12.13
2023-03-03T04:42:31.604Z,12.83
2023-03-03T04:44:33.547Z,12.80
2023-03-03T04:46:35.733Z,11.20
2023-03-03T04:48:38.958Z,11.53
2023-03-03T04:50:42.436Z,11.20
2023-03-03T04:52:44.271Z,12.17
2023-03-03T04:54:47.635Z,12.63
2023-03-03T04:56:49.420Z,12.13
2023-03-03T04:58:52.333Z,11.73
2023-03-03T05:00:55.931Z,11.33
2023-03-03T05:02:59.486Z,10.90
2023-03-03T05:05:01.268Z,11.57
2023-03-03T05:07:03.260Z,12.47
2023-03-03T05:09:04.791Z,11.90
2023-03-03T05:11:06.751Z,11.37
2023-03-03T05:13:09.501Z,11.73
2023-03-03T05:15:11.231Z,12.10
2023-03-03T05:17:12.828Z,11.33
2023-03-03T05:19:14.522Z,12.50
2023-03-03T05:21:16.172Z,11.13
2023-03-03T05:23:18.898Z,11.30
2023-03-03T05:25:21.839Z,12.07
2023-03-03T05:27:23.748Z,12.27
2023-03-03T05:29:26.251Z,12.43
2023-03-03T05:31:27.997Z,11.10
2023-03-03T05:33:29.552Z,12.23
2023-03-03T05:35:31.318Z,12.47
2023-03-03T05:37:32.995Z,13.10
2023-03-03T05:39:35.286Z,11.70
2023-03-03T05:41:37.049Z,12.57
2023-03-03T05:43:38.597Z,13.17
2023-03-03T05:45:40.529Z,13.47
2023-03-03T05:47:42.600Z,12.97
2023-03-03T05:49:44.235Z,12.73
2023-03-03T05:51:45.923Z,12.27
2023-03-03T05:53:47.617Z,13.77
2023-03-03T05:55:49.980Z,14.23
2023-03-03T05:57:51.827Z,15.03
2023-03-03T05:59:53.387Z,14.70
2023-03-03T06:01:55.073Z,15.43
2023-03-03T06:03:56.723Z,15.23
2023-03-03T06:05:58.483Z,14.20
2023-03-03T06:08:00.122Z,16.20
2023-03-03T06:10:01.955Z,15.20
2023-03-03T06:12:09.778Z,16.40
2023-03-03T06:14:11.563Z,15.73
2023-03-03T06:16:13.394Z,16.50
2023-03-03T06:18:15.178Z,16.47
2023-03-03T06:20:16.865Z,17.13
2023-03-03T06:22:19.065Z,18.63
2023-03-03T06:24:20.830Z,16.40
2023-03-03T06:26:23.089Z,17.77
2023-03-03T06:28:25.150Z,16.87
2023-03-03T06:30:28.353Z,17.40
2023-03-03T06:32:30.146Z,17.50
2023-03-03T06:34:31.830Z,18.10
2023-03-03T06:36:33.476Z,17.73
2023-03-03T06:38:35.168Z,18.00
2023-03-03T06:40:36.696Z,16.73
2023-03-03T06:42:38.308Z,18.70
2023-03-03T06:44:40.040Z,18.80
2023-03-03T06:46:41.649Z,21.10
2023-03-03T06:48:43.358Z,19.37
2023-03-03T06:50:44.880Z,21.07
2023-03-03T06:52:46.511Z,20.20
2023-03-03T06:54:48.254Z,19.00
2023-03-03T06:56:53.903Z,18.73
2023-03-03T06:58:58.270Z,18.13
2023-03-03T07:01:01.459Z,17.13
2023-03-03T07:03:12.337Z,17.67
2023-03-03T07:05:18.229Z,18.33
2023-03-03T07:07:25.797Z,16.20
2023-03-03T07:09:29.819Z,17.23
2023-03-03T07:11:31.533Z,15.90
2023-03-03T07:13:34.082Z,14.70
2023-03-03T07:15:36.038Z,14.20
2023-03-03T07:17:43.436Z,14.83
2023-03-03T07:19:46.368Z,13.40
2023-03-03T07:21:47.928Z,13.63
2023-03-03T07:23:52.058Z,13.43
2023-03-03T07:25:53.819Z,14.60
2023-03-03T07:28:00.967Z,14.83
2023-03-03T07:30:24.647Z,14.33
2023-03-03T07:32:34.314Z,14.17
2023-03-03T07:34:39.849Z,14.20
2023-03-03T07:36:41.876Z,14.00
2023-03-03T07:38:53.026Z,13.53
2023-03-03T07:40:56.958Z,13.30
2023-03-03T07:42:58.532Z,13.27
2023-03-03T07:45:34.739Z,12.90
2023-03-03T07:47:37.218Z,13.50
2023-03-03T07:49:39.043Z,13.57
2023-03-03T07:51:42.242Z,13.97
2023-03-03T07:53:44.045Z,16.33
2023-03-03T07:55:46.404Z,15.13
2023-03-03T07:57:51.957Z,15.50
2023-03-03T07:59:58.591Z,16.13
2023-03-03T08:02:00.568Z,15.57
2023-03-03T08:04:02.353Z,16.23
2023-03-03T08:06:35.846Z,15.18
2023-03-03T08:08:37.409Z,14.75
2023-03-03T08:10:48.380Z,15.20
2023-03-03T08:12:50.111Z,14.82
2023-03-03T08:14:54.328Z,15.40
2023-03-03T08:16:57.630Z,15.27
2023-03-03T08:19:03.735Z,14.85
2023-03-03T08:21:16.570Z,15.75
2023-03-03T08:23:19.380Z,15.48
2023-03-03T08:25:21.032Z,16.10
2023-03-03T08:27:22.556Z,15.98
2023-03-03T08:29:24.742Z,15.48
2023-03-03T08:31:40.314Z,15.55
2023-03-03T08:33:42.542Z,15.23
2023-03-03T08:35:45.233Z,15.43
2023-03-03T08:37:46.912Z,14.05
2023-03-03T08:39:48.540Z,14.57
2023-03-03T08:41:50.551Z,14.85
2023-03-03T08:43:52.097Z,14.75
2023-03-03T08:45:58.178Z,14.60
2023-03-03T08:48:01.388Z,14.10
2023-03-03T08:50:03.342Z,14.05
2023-03-03T08:52:05.138Z,15.23
2023-03-03T08:54:07.320Z,16.27
2023-03-03T08:56:10.224Z,17.13
2023-03-03T08:58:12.110Z,14.60
2023-03-03T09:00:16.640Z,14.30
2023-03-03T09:02:18.220Z,13.57
2023-03-03T09:04:19.781Z,14.13
2023-03-03T09:06:21.292Z,14.65
2023-03-03T09:08:22.918Z,13.73
2023-03-03T09:10:29.353Z,13.63
2023-03-03T09:12:35.765Z,13.50
2023-03-03T09:14:37.489Z,12.82
2023-03-03T09:17:03.390Z,12.63
2023-03-03T09:19:25.849Z,14.07
2023-03-03T09:21:32.956Z,13.27
2023-03-03T09:23:36.934Z,13.15
2023-03-03T09:25:40.741Z,12.55
2023-03-03T09:27:43.485Z,13.23
2023-03-03T09:29:45.309Z,14.73
2023-03-03T09:31:55.786Z,14.68
2023-03-03T09:33:59.387Z,15.05
2023-03-03T09:36:12.514Z,14.95
2023-03-03T09:38:33.618Z,14.57
2023-03-03T09:41:00.902Z,15.60
2023-03-03T09:43:25.873Z,14.63
2023-03-03T09:46:06.945Z,13.80
2023-03-03T09:48:17.654Z,14.88
2023-03-03T09:50:56.444Z,13.98
2023-03-03T09:53:28.354Z,14.23
2023-03-03T09:55:57.997Z,13.77
2023-03-03T09:58:11.393Z,12.93
2023-03-03T10:00:46.762Z,13.77
2023-03-03T10:03:08.714Z,12.55
2023-03-03T10:05:30.049Z,12.10
2023-03-03T10:07:55.566Z,13.10
2023-03-03T10:10:12.432Z,12.80
2023-03-03T10:12:33.708Z,12.50
2023-03-03T10:14:44.607Z,12.15
2023-03-03T10:16:52.747Z,12.95
2023-03-03T10:19:15.478Z,11.95
2023-03-03T10:21:23.419Z,12.70
2023-03-03T10:23:36.912Z,12.32
2023-03-03T10:25:47.109Z,11.52
2023-03-03T10:28:13.517Z,11.00
2023-03-03T10:30:38.273Z,12.25
2023-03-03T10:33:22.336Z,11.98
2023-03-03T10:35:44.434Z,11.57
2023-03-03T10:37:54.435Z,11.52
2023-03-03T10:40:30.180Z,11.00
2023-03-03T10:43:00.628Z,11.05
2023-03-03T10:45:20.906Z,10.43
2023-03-03T10:47:53.890Z,10.70
2023-03-03T10:50:34.443Z,10.00
2023-03-03T10:52:42.600Z,9.63
2023-03-03T10:54:44.048Z,9.10
2023-03-03T10:57:16.033Z,10.77
2023-03-03T10:59:32.868Z,9.90
2023-03-03T11:02:02.141Z,10.52
2023-03-03T11:04:17.188Z,9.13
2023-03-03T11:06:40.695Z,8.70
2023-03-03T11:08:57.594Z,9.38
2023-03-03T11:11:18.196Z,9.18
2023-03-03T11:13:38.702Z,9.45
2023-03-03T11:15:50.121Z,8.60
2023-03-03T11:18:06.851Z,9.05
2023-03-03T11:20:42.608Z,9.82
2023-03-03T11:23:01.393Z,8.98
2023-03-03T11:25:08.796Z,9.25
2023-03-03T11:27:20.516Z,9.35
2023-03-03T11:29:45.330Z,8.77
2023-03-03T11:31:49.692Z,9.48
2023-03-03T11:34:06.669Z,9.00
2023-03-03T11:36:19.139Z,9.82
2023-03-03T11:38:52.899Z,8.98
2023-03-03T11:41:04.735Z,9.15
2023-03-03T11:43:36.732Z,8.45
2023-03-03T11:45:45.081Z,8.70
2023-03-03T11:48:01.054Z,8.45
2023-03-03T11:50:10.792Z,8.52
2023-03-03T11:52:22.063Z,9.02
2023-03-03T11:54:32.707Z,8.80
2023-03-03T11:56:42.953Z,8.27
2023-03-03T11:58:49.619Z,8.13
2023-03-03T12:00:58.609Z,8.27
2023-03-03T12:03:21.374Z,8.50
2023-03-03T12:05:38.674Z,8.18
2023-03-03T12:08:15.605Z,8.63
2023-03-03T12:10:28.848Z,8.00
2023-03-03T12:12:39.633Z,8.75
2023-03-03T12:15:02.617Z,7.97
2023-03-03T12:17:34.151Z,9.00
2023-03-03T12:19:44.663Z,7.95
2023-03-03T12:22:04.775Z,8.35
2023-03-03T12:24:11.149Z,8.43
2023-03-03T12:26:41.447Z,9.40
2023-03-03T12:28:55.302Z,8.88
2023-03-03T12:31:22.918Z,8.68
2023-03-03T12:33:49.594Z,8.38
2023-03-03T12:36:02.803Z,8.82
2023-03-03T12:38:31.088Z,8.05
2023-03-03T12:40:35.661Z,8.38
2023-03-03T12:43:09.372Z,8.40
2023-03-03T12:45:20.244Z,7.47
2023-03-03T12:47:29.595Z,8.75
2023-03-03T12:49:48.091Z,7.85
2023-03-03T12:52:18.037Z,7.75
2023-03-03T12:54:53.651Z,8.10
2023-03-03T12:57:02.025Z,7.97
2023-03-03T12:59:29.677Z,7.93
2023-03-03T13:01:36.937Z,8.50
2023-03-03T13:03:49.662Z,8.13
2023-03-03T13:06:15.558Z,8.80
2023-03-03T13:08:34.231Z,8.05
2023-03-03T13:10:38.884Z,7.25
2023-03-03T13:12:43.290Z,8.05
2023-03-03T13:14:56.801Z,8.27
2023-03-03T13:17:17.958Z,7.88
2023-03-03T13:19:30.803Z,6.72
2023-03-03T13:21:41.880Z,6.97
2023-03-03T13:24:05.581Z,7.13
2023-03-03T13:26:25.755Z,6.45
2023-03-03T13:29:12.592Z,7.40
2023-03-03T13:31:21.829Z,7.25
2023-03-03T13:33:31.035Z,6.93
2023-03-03T13:35:32.966Z,7.13
2023-03-03T13:37:52.578Z,7.07
2023-03-03T13:40:06.081Z,6.90
2023-03-03T13:42:28.294Z,7.00
2023-03-03T13:44:42.850Z,6.82
2023-03-03T13:46:50.234Z,6.90
2023-03-03T13:49:10.664Z,6.75
2023-03-03T13:51:35.714Z,6.38
2023-03-03T13:54:13.053Z,6.50
2023-03-03T13:56:29.872Z,6.47
2023-03-03T13:58:57.380Z,6.78
2023-03-03T14:01:06.650Z,6.55
2023-03-03T14:03:26.141Z,6.57
2023-03-03T14:05:48.680Z,7.38
2023-03-03T14:07:56.449Z,6.68
2023-03-03T14:10:25.577Z,6.60
2023-03-03T14:12:44.765Z,6.43
2023-03-03T14:15:05.215Z,6.35
2023-03-03T14:17:29.901Z,6.13
2023-03-03T14:19:36.928Z,6.03
2023-03-03T14:22:01.971Z,6.40
2023-03-03T14:24:18.425Z,6.50
2023-03-03T14:26:20.204Z,5.88
2023-03-03T14:28:24.945Z,5.90
2023-03-03T14:30:35.249Z,6.60
2023-03-03T14:32:45.465Z,6.05
2023-03-03T14:34:59.054Z,5.93
2023-03-03T14:37:21.651Z,5.70
2023-03-03T14:39:32.564Z,5.35
2023-03-03T14:41:41.009Z,6.13
2023-03-03T14:43:46.244Z,5.63
2023-03-03T14:45:48.093Z,6.00
2023-03-03T14:47:50.126Z,5.55
2023-03-03T14:49:52.754Z,6.13
2023-03-03T14:52:03.558Z,5.57
2023-03-03T14:54:14.333Z,6.28
2023-03-03T14:56:27.908Z,5.45
2023-03-03T14:58:41.354Z,5.18
2023-03-03T15:00:43.178Z,5.30
2023-03-03T15:02:49.866Z,5.05
2023-03-03T15:05:14.072Z,4.95
2023-03-03T15:07:37.309Z,5.43
2023-03-03T15:09:50.454Z,5.35
2023-03-03T15:11:54.214Z,5.30
2023-03-03T15:14:15.760Z,5.50
2023-03-03T15:16:25.350Z,4.63
2023-03-03T15:18:28.711Z,4.68
2023-03-03T15:20:48.233Z,4.60
2023-03-03T15:23:11.178Z,5.13
2023-03-03T15:25:42.205Z,3.88
2023-03-03T15:28:06.285Z,3.97
2023-03-03T15:30:47.587Z,4.15
2023-03-03T15:33:08.945Z,3.67
2023-03-03T15:35:20.577Z,3.92
2023-03-03T15:37:47.745Z,3.70
2023-03-03T15:40:04.512Z,3.72
2023-03-03T15:42:35.882Z,3.60
2023-03-03T15:45:06.611Z,3.97
2023-03-03T15:47:21.733Z,3.85
2023-03-03T15:49:41.922Z,3.40
2023-03-03T15:52:21.569Z,3.22
2023-03-03T15:54:47.429Z,3.35
2023-03-03T15:56:54.280Z,2.90
2023-03-03T15:59:10.700Z,3.60
2023-03-03T16:01:31.319Z,3.53
2023-03-03T16:03:47.219Z,4.00
2023-03-03T16:06:03.935Z,3.65
2023-03-03T16:08:17.635Z,3.70
2023-03-03T16:10:34.791Z,3.50
2023-03-03T16:12:44.149Z,3.95
2023-03-03T16:15:05.842Z,3.80
2023-03-03T16:17:32.668Z,3.72
2023-03-03T16:20:17.936Z,4.45
2023-03-03T16:22:40.807Z,4.38
2023-03-03T16:25:19.594Z,4.63
2023-03-03T16:27:46.099Z,5.38
2023-03-03T16:30:12.322Z,5.40
2023-03-03T16:32:25.841Z,5.05
2023-03-03T16:34:46.065Z,5.43
2023-03-03T16:37:12.530Z,4.75
2023-03-03T16:39:21.586Z,4.50
2023-03-03T16:41:51.371Z,4.55
2023-03-03T16:44:12.860Z,4.70
2023-03-03T16:46:33.297Z,4.63
2023-03-03T16:49:00.608Z,4.10
2023-03-03T16:51:27.795Z,5.15
2023-03-03T16:53:53.436Z,4.80
2023-03-03T16:56:22.881Z,4.18
2023-03-03T16:58:52.829Z,4.70
2023-03-03T17:01:32.462Z,4.95
2023-03-03T17:04:06.762Z,4.93
2023-03-03T17:06:31.398Z,5.25
2023-03-03T17:09:08.582Z,4.95
2023-03-03T17:11:22.866Z,4.68
2023-03-03T17:13:48.424Z,4.70
2023-03-03T17:16:04.292Z,4.60
2023-03-03T17:18:48.155Z,4.30
2023-03-03T17:20:56.547Z,4.82
2023-03-03T17:23:14.544Z,5.63
2023-03-03T17:25:40.420Z,5.30
2023-03-03T17:28:05.002Z,7.05
2023-03-03T17:30:25.400Z,7.20
2023-03-03T17:33:05.826Z,6.55
2023-03-03T17:35:22.717Z,5.68
2023-03-03T17:37:37.345Z,5.55
2023-03-03T17:39:45.026Z,5.03
2023-03-03T17:42:25.074Z,6.03
2023-03-03T17:44:49.457Z,6.13
2023-03-03T17:46:55.513Z,5.97
2023-03-03T17:49:18.363Z,5.68
2023-03-03T17:51:29.727Z,5.18
2023-03-03T17:54:03.821Z,5.38
2023-03-03T17:56:20.548Z,5.00
2023-03-03T17:58:45.152Z,5.35
2023-03-03T18:01:01.159Z,5.22
2023-03-03T18:03:33.964Z,5.40
2023-03-03T18:05:57.191Z,5.75
2023-03-03T18:08:06.240Z,5.28
2023-03-03T18:10:18.586Z,5.88
2023-03-03T18:12:44.985Z,5.60
2023-03-03T18:15:05.494Z,5.38
2023-03-03T18:17:25.905Z,5.22
2023-03-03T18:19:49.298Z,5.70
2023-03-03T18:22:11.200Z,4.85
2023-03-03T18:24:28.567Z,4.38
2023-03-03T18:26:36.692Z,4.10
2023-03-03T18:28:50.565Z,4.22
2023-03-03T18:31:00.645Z,4.53
2023-03-03T18:33:07.698Z,4.55
2023-03-03T18:35:33.781Z,4.80
2023-03-03T18:37:40.432Z,4.97
2023-03-03T18:39:45.997Z,5.05
2023-03-03T18:42:11.087Z,4.82
2023-03-03T18:44:30.520Z,5.00
2023-03-03T18:46:32.053Z,5.07
2023-03-03T18:49:01.403Z,5.15
2023-03-03T18:51:03.355Z,5.55
2023-03-03T18:53:11.122Z,6.68
2023-03-03T18:55:12.701Z,6.60
2023-03-03T18:57:18.543Z,6.28
2023-03-03T18:59:35.298Z,6.38
2023-03-03T19:01:44.913Z,6.32
2023-03-03T19:03:49.112Z,5.65
2023-03-03T19:05:57.637Z,5.57
2023-03-03T19:08:24.450Z,6.00
2023-03-03T19:10:44.484Z,5.47
2023-03-03T19:12:49.414Z,6.28
2023-03-03T19:14:51.049Z,5.63
2023-03-03T19:16:54.433Z,5.30
2023-03-03T19:18:55.956Z,5.72
2023-03-03T19:21:06.269Z,5.10
2023-03-03T19:23:20.378Z,4.95
2023-03-03T19:25:26.122Z,4.38
2023-03-03T19:27:39.860Z,4.30
2023-03-03T19:29:44.257Z,5.00
2023-03-03T19:32:08.450Z,5.32
2023-03-03T19:34:40.131Z,4.38
2023-03-03T19:36:57.193Z,5.13
2023-03-03T19:39:01.538Z,4.53
2023-03-03T19:41:41.721Z,4.63
2023-03-03T19:43:43.249Z,5.50
2023-03-03T19:46:09.762Z,5.18
2023-03-03T19:48:25.382Z,7.63
2023-03-03T19:50:42.752Z,7.00
2023-03-03T19:52:56.623Z,8.48
2023-03-03T19:55:16.570Z,9.90
2023-03-03T19:57:48.994Z,11.55
2023-03-03T20:00:02.942Z,13.10
2023-03-03T20:02:57.164Z,13.90
2023-03-03T20:05:21.192Z,14.20
2023-03-03T20:07:40.994Z,13.23
2023-03-03T20:09:55.455Z,12.93
2023-03-03T20:11:59.819Z,11.35
2023-03-03T20:14:23.878Z,10.10
2023-03-03T20:16:41.398Z,10.20
2023-03-03T20:19:02.449Z,9.65
2023-03-03T20:21:15.254Z,9.35
2023-03-03T20:23:39.943Z,9.63
2023-03-03T20:26:07.420Z,9.02
2023-03-03T20:28:31.713Z,8.88
2023-03-03T20:30:55.228Z,8.00
2023-03-03T20:33:11.196Z,8.10
2023-03-03T20:35:30.904Z,7.78
2023-03-03T20:37:52.616Z,9.53
2023-03-03T20:40:21.166Z,9.60
2023-03-03T20:42:42.012Z,10.23
2023-03-03T20:44:55.386Z,9.83
2023-03-03T20:47:23.208Z,10.23
2023-03-03T20:49:52.693Z,10.17
2023-03-03T20:52:03.569Z,9.57
2023-03-03T20:54:15.826Z,10.32
2023-03-03T20:56:41.597Z,10.48
2023-03-03T20:59:09.515Z,9.65
2023-03-03T21:01:17.806Z,9.30
2023-03-03T21:03:34.288Z,8.30
2023-03-03T21:05:54.878Z,8.35
2023-03-03T21:07:58.850Z,7.40
2023-03-03T21:10:23.950Z,8.23
2023-03-03T21:12:29.251Z,8.60
2023-03-03T21:14:35.772Z,8.17
2023-03-03T21:16:37.571Z,8.17
2023-03-03T21:18:39.641Z,8.82
2023-03-03T21:20:41.308Z,8.63
2023-03-03T21:22:42.970Z,9.13
2023-03-03T21:24:56.206Z,9.63
2023-03-03T21:27:00.274Z,10.00
2023-03-03T21:29:03.571Z,9.67
2023-03-03T21:31:13.378Z,9.73
2023-03-03T21:33:43.573Z,9.53
2023-03-03T21:35:58.724Z,8.83
2023-03-03T21:38:00.407Z,8.50
2023-03-03T21:40:23.398Z,7.47
2023-03-03T21:42:42.363Z,7.40
2023-03-03T21:44:51.822Z,6.70
2023-03-03T21:46:53.398Z,7.17
2023-03-03T21:48:55.048Z,6.20
2023-03-03T21:50:56.844Z,6.80
2023-03-03T21:52:58.431Z,6.77
2023-03-03T21:55:00.047Z,6.40
2023-03-03T21:57:01.654Z,6.50
2023-03-03T21:59:03.413Z,6.37
2023-03-03T22:01:06.662Z,6.30
2023-03-03T22:03:08.187Z,6.27
2023-03-03T22:05:09.963Z,6.07
2023-03-03T22:07:11.594Z,5.57
2023-03-03T22:09:13.275Z,6.03
2023-03-03T22:11:15.684Z,6.23
2023-03-03T22:13:20.067Z,6.30
2023-03-03T22:15:21.747Z,6.07
2023-03-03T22:17:25.576Z,6.33
2023-03-03T22:19:27.122Z,7.37
2023-03-03T22:21:29.813Z,8.03
2023-03-03T22:23:32.783Z,8.10
2023-03-03T22:25:34.366Z,7.80
2023-03-03T22:27:35.936Z,7.40
2023-03-03T22:29:37.494Z,8.17
2023-03-03T22:31:39.972Z,8.07
2023-03-03T22:33:41.923Z,7.60
2023-03-03T22:35:44.005Z,7.83
2023-03-03T22:37:45.580Z,7.33
2023-03-03T22:39:48.461Z,7.47
2023-03-03T22:41:50.052Z,7.40
2023-03-03T22:43:51.653Z,7.50
2023-03-03T22:45:53.384Z,8.43
2023-03-03T22:47:55.005Z,8.00
2023-03-03T22:49:56.680Z,8.43
2023-03-03T22:51:58.921Z,7.83
2023-03-03T22:54:00.493Z,8.07
2023-03-03T22:56:02.147Z,8.77
2023-03-03T22:58:04.619Z,8.60
2023-03-03T23:00:09.001Z,13.30
2023-03-03T23:02:10.552Z,16.83
2023-03-03T23:04:12.109Z,15.77
2023-03-03T23:06:13.771Z,13.67
2023-03-03T23:08:17.461Z,11.23
2023-03-03T23:10:19.539Z,9.40
2023-03-03T23:12:21.136Z,8.57
2023-03-03T23:14:22.729Z,8.07
2023-03-03T23:16:24.530Z,7.73
2023-03-03T23:18:28.335Z,7.50
2023-03-03T23:20:31.610Z,7.80
2023-03-03T23:22:33.192Z,8.43
2023-03-03T23:24:34.868Z,8.83
2023-03-03T23:26:37.295Z,8.57
2023-03-03T23:28:38.903Z,8.33
2023-03-03T23:30:40.524Z,8.33
2023-03-03T23:32:42.383Z,8.07
2023-03-03T23:34:44.171Z,7.40
2023-03-03T23:36:45.865Z,7.60
2023-03-03T23:38:47.516Z,7.87
2023-03-03T23:40:49.124Z,7.43
2023-03-03T23:42:50.883Z,7.17
2023-03-03T23:44:52.608Z,7.10
2023-03-03T23:46:54.242Z,7.33
2023-03-03T23:48:55.875Z,7.40
2023-03-03T23:50:57.603Z,7.13
2023-03-03T23:52:59.297Z,6.63
2023-03-03T23:55:01.549Z,7.90
2023-03-03T23:57:03.538Z,7.83
2023-03-03T23:59:05.069Z,7.50
